Pa Furnace, Pennsylvania
Current Conditions -  °F | °C
As of 1:55 AM on Monday 24 Nov 2014 (Local Time) from KUNV Reporting Station
Moderate Rain Moderate Rain  
Wind Chill: 50°   Ceiling: 1600
Heat Index: 50°   Visibility: 5mi
Dew Point: 48°   Wind: 8mph
Humidity: 92%   Direction: 190°S
Pressure: 29.6"   Gusts: NA
Location:  40.7134°N, 77.9879°W
Report Text: KUNV 240655Z AUTO 19007KT 5SM RA OVC016 10/09 A2960 RMK AO2 P0001 T01000087
Loading
Personal Weather Stations






























Interactive Weather Map New forecast layout! Learn more

10-Day Weather Forecast

Advertisements
Track Severe Weather on mobile